createdAt,value
2022-08-10T00:01:31.790Z,24.54
2022-08-10T00:03:58.739Z,24.55
2022-08-10T00:06:25.662Z,24.44
2022-08-10T00:08:54.753Z,24.51
2022-08-10T00:11:21.717Z,24.44
2022-08-10T00:13:48.666Z,24.48
2022-08-10T00:16:15.534Z,24.53
2022-08-10T00:18:42.432Z,24.53
2022-08-10T00:21:09.958Z,24.45
2022-08-10T00:23:37.802Z,24.30
2022-08-10T00:26:06.509Z,24.33
2022-08-10T00:28:33.637Z,24.37
2022-08-10T00:31:00.628Z,24.38
2022-08-10T00:33:27.769Z,24.34
2022-08-10T00:35:54.748Z,24.34
2022-08-10T00:38:21.744Z,24.40
2022-08-10T00:40:48.689Z,24.39
2022-08-10T00:43:15.728Z,24.42
2022-08-10T00:45:59.410Z,24.31
2022-08-10T00:48:31.702Z,24.31
2022-08-10T00:50:59.951Z,24.21
2022-08-10T00:53:28.663Z,24.15
2022-08-10T00:57:12.665Z,24.29
2022-08-10T00:58:43.780Z,24.08
2022-08-10T01:02:07.386Z,24.09
2022-08-10T01:04:36.707Z,24.14
2022-08-10T01:07:06.538Z,24.12
2022-08-10T01:09:55.737Z,24.14
2022-08-10T01:12:52.012Z,24.06
2022-08-10T01:15:33.862Z,24.14
2022-08-10T01:18:18.667Z,24.14
2022-08-10T01:21:37.565Z,23.94
2022-08-10T01:24:48.678Z,24.08
2022-08-10T01:28:01.266Z,23.96
2022-08-10T01:30:31.630Z,23.95
2022-08-10T01:33:12.455Z,23.91
2022-08-10T01:35:55.611Z,23.83
2022-08-10T01:38:31.641Z,23.81
2022-08-10T01:41:13.834Z,23.72
2022-08-10T01:43:50.660Z,23.80
2022-08-10T01:46:19.331Z,23.67
2022-08-10T01:48:54.624Z,23.66
2022-08-10T01:51:51.604Z,23.57
2022-08-10T01:54:25.778Z,23.51
2022-08-10T01:56:58.351Z,23.52
2022-08-10T01:59:34.577Z,23.53
2022-08-10T02:02:10.057Z,23.51
2022-08-10T02:04:42.003Z,23.51
2022-08-10T02:07:16.267Z,23.44
2022-08-10T02:09:49.543Z,23.34
2022-08-10T02:12:24.815Z,23.09
2022-08-10T02:14:57.302Z,23.03
2022-08-10T02:17:59.322Z,22.89
2022-08-10T02:20:25.920Z,22.81
2022-08-10T02:23:08.405Z,22.95
2022-08-10T02:25:41.737Z,22.92
2022-08-10T02:28:29.822Z,23.03
2022-08-10T02:31:06.168Z,23.07
2022-08-10T02:33:36.943Z,22.98
2022-08-10T02:36:08.849Z,22.89
2022-08-10T02:38:59.235Z,22.93
2022-08-10T02:45:09.049Z,22.88
2022-08-10T02:45:23.257Z,22.98
2022-08-10T02:48:24.917Z,22.94
2022-08-10T02:50:59.586Z,22.97
2022-08-10T02:53:54.289Z,22.93
2022-08-10T02:56:42.419Z,22.87
2022-08-10T02:59:20.125Z,22.85
2022-08-10T03:01:50.950Z,22.78
2022-08-10T03:04:54.581Z,22.72
2022-08-10T03:07:44.142Z,22.69
2022-08-10T03:10:25.816Z,22.81
2022-08-10T03:13:00.354Z,22.70
2022-08-10T03:15:33.308Z,22.50
2022-08-10T03:18:01.055Z,22.52
2022-08-10T03:20:39.603Z,22.35
2022-08-10T03:23:15.354Z,22.33
2022-08-10T03:25:53.443Z,22.27
2022-08-10T03:28:23.604Z,22.34
2022-08-10T03:30:51.599Z,22.24
2022-08-10T03:33:21.737Z,22.19
2022-08-10T03:36:42.878Z,22.13
2022-08-10T03:38:37.443Z,22.03
2022-08-10T03:41:09.814Z,22.06
2022-08-10T03:43:37.633Z,21.95
2022-08-10T03:46:10.064Z,22.08
2022-08-10T03:48:49.285Z,22.06
2022-08-10T03:51:19.503Z,22.01
2022-08-10T03:54:03.395Z,21.95
2022-08-10T03:56:38.557Z,22.07
2022-08-10T03:59:09.940Z,22.02
2022-08-10T04:02:46.909Z,22.00
2022-08-10T04:04:28.462Z,22.12
2022-08-10T04:06:58.570Z,22.13
2022-08-10T04:09:54.414Z,22.08
2022-08-10T04:12:19.701Z,21.89
2022-08-10T04:14:52.387Z,21.93
2022-08-10T04:17:57.459Z,21.95
2022-08-10T04:20:34.493Z,21.92
2022-08-10T04:23:08.338Z,21.87
2022-08-10T04:25:36.398Z,21.67
2022-08-10T04:28:04.113Z,21.73
2022-08-10T04:30:32.666Z,21.66
2022-08-10T04:33:02.943Z,21.77
2022-08-10T04:35:32.510Z,21.91
2022-08-10T04:38:00.706Z,22.05
2022-08-10T04:40:30.119Z,22.14
2022-08-10T04:43:12.470Z,22.31
2022-08-10T04:45:47.432Z,22.30
2022-08-10T04:48:39.848Z,22.43
2022-08-10T04:51:07.794Z,22.56
2022-08-10T04:54:04.247Z,22.50
2022-08-10T04:56:31.771Z,22.82
2022-08-10T04:59:00.587Z,23.07
2022-08-10T05:02:30.402Z,23.26
2022-08-10T05:07:01.889Z,23.47
2022-08-10T05:09:28.853Z,23.55
2022-08-10T05:11:55.875Z,23.69
2022-08-10T05:14:22.801Z,23.73
2022-08-10T05:16:49.651Z,24.00
2022-08-10T05:19:16.506Z,24.15
2022-08-10T05:22:02.978Z,24.34
2022-08-10T05:24:32.442Z,24.29
2022-08-10T05:27:09.460Z,24.60
2022-08-10T05:29:37.427Z,24.78
2022-08-10T05:32:04.801Z,24.95
2022-08-10T05:34:31.703Z,25.24
2022-08-10T05:36:58.922Z,25.62
2022-08-10T05:39:30.404Z,25.93
2022-08-10T05:42:01.096Z,26.01
2022-08-10T05:44:29.829Z,26.22
2022-08-10T05:46:57.022Z,26.67
2022-08-10T05:49:24.655Z,27.26
2022-08-10T05:51:52.196Z,27.74
2022-08-10T05:54:20.171Z,28.24
2022-08-10T05:56:55.326Z,28.87
2022-08-10T06:00:34.603Z,29.38
2022-08-10T06:02:45.762Z,29.94
2022-08-10T06:05:23.612Z,30.47
2022-08-10T06:08:19.335Z,31.18
2022-08-10T06:12:21.682Z,31.36
2022-08-10T06:14:13.439Z,32.07
2022-08-10T06:16:44.521Z,32.20
2022-08-10T06:19:15.531Z,33.26
2022-08-10T06:22:00.690Z,34.07
2022-08-10T06:24:31.179Z,35.21
2022-08-10T06:26:59.504Z,35.81
2022-08-10T06:29:29.786Z,36.97
2022-08-10T06:31:58.725Z,37.67
2022-08-10T06:34:42.887Z,38.52
2022-08-10T06:37:13.148Z,39.21
2022-08-10T06:39:40.134Z,39.78
2022-08-10T06:42:20.246Z,40.61
2022-08-10T06:45:00.939Z,41.49
2022-08-10T06:48:00.878Z,42.39
2022-08-10T06:50:56.157Z,43.00
2022-08-10T06:53:53.434Z,43.80
2022-08-10T06:56:36.896Z,44.03
2022-08-10T06:59:24.333Z,43.70
2022-08-10T07:01:58.740Z,43.61
2022-08-10T07:04:40.731Z,43.05
2022-08-10T07:07:09.436Z,43.14
2022-08-10T07:09:40.978Z,43.78
2022-08-10T07:12:09.702Z,44.66
2022-08-10T07:14:44.510Z,44.56
2022-08-10T07:17:16.067Z,42.42
2022-08-10T07:19:55.519Z,40.73
2022-08-10T07:23:54.430Z,38.52
2022-08-10T07:25:19.235Z,36.89
2022-08-10T07:28:00.654Z,36.91
2022-08-10T07:30:32.482Z,36.31
2022-08-10T07:33:01.993Z,35.54
2022-08-10T07:35:41.508Z,34.94
2022-08-10T07:38:17.026Z,35.01
2022-08-10T07:40:44.608Z,34.52
2022-08-10T07:43:12.623Z,34.33
2022-08-10T07:45:40.640Z,34.50
2022-08-10T07:48:15.860Z,32.86
2022-08-10T07:50:44.857Z,33.26
2022-08-10T07:53:19.391Z,33.46
2022-08-10T07:56:04.636Z,33.90
2022-08-10T07:58:56.457Z,33.33
2022-08-10T08:01:29.637Z,33.55
2022-08-10T08:04:05.712Z,33.60
2022-08-10T08:06:41.037Z,33.71
2022-08-10T08:09:09.692Z,33.88
2022-08-10T08:11:39.708Z,33.16
2022-08-10T08:14:09.250Z,33.09
2022-08-10T08:16:42.007Z,33.03
2022-08-10T08:19:26.905Z,33.03
2022-08-10T08:24:07.235Z,33.34
2022-08-10T08:24:44.349Z,33.59
2022-08-10T08:27:16.790Z,33.96
2022-08-10T08:29:47.428Z,33.94
2022-08-10T08:32:24.316Z,34.13
2022-08-10T08:35:04.380Z,34.17
2022-08-10T08:38:32.072Z,34.19
2022-08-10T08:40:33.661Z,33.69
2022-08-10T08:43:49.377Z,33.34
2022-08-10T08:46:52.658Z,33.29
2022-08-10T08:50:07.724Z,32.72
2022-08-10T08:53:22.348Z,31.67
2022-08-10T08:56:16.665Z,31.40
2022-08-10T08:59:30.444Z,31.29
2022-08-10T09:02:33.398Z,31.36
2022-08-10T09:05:58.393Z,31.55
2022-08-10T09:08:36.762Z,31.36
2022-08-10T09:11:27.767Z,30.93
2022-08-10T09:14:41.853Z,30.90
2022-08-10T09:17:33.003Z,30.82
2022-08-10T09:20:19.538Z,31.08
2022-08-10T09:23:03.604Z,31.20
2022-08-10T09:25:38.021Z,31.45
2022-08-10T09:28:08.588Z,31.20
2022-08-10T09:31:10.796Z,30.97
2022-08-10T09:36:23.355Z,30.92
2022-08-10T09:37:02.227Z,31.31
2022-08-10T09:40:06.585Z,31.32
2022-08-10T09:43:21.937Z,30.95
2022-08-10T09:45:59.715Z,30.91
2022-08-10T09:49:22.221Z,31.44
2022-08-10T09:52:21.925Z,31.28
2022-08-10T09:55:06.823Z,31.19
2022-08-10T09:58:12.391Z,31.24
2022-08-10T10:00:48.042Z,31.24
2022-08-10T10:03:27.818Z,31.18
2022-08-10T10:06:10.955Z,30.76
2022-08-10T10:09:10.115Z,31.02
2022-08-10T10:12:11.552Z,30.90
2022-08-10T10:15:24.504Z,30.81
2022-08-10T10:18:39.643Z,31.05
2022-08-10T10:21:24.194Z,30.92
2022-08-10T10:24:22.958Z,30.61
2022-08-10T10:27:00.201Z,30.57
2022-08-10T10:30:09.962Z,30.44
2022-08-10T10:32:58.108Z,30.71
2022-08-10T10:35:37.065Z,30.98
2022-08-10T10:38:09.296Z,31.21
2022-08-10T10:41:08.856Z,31.11
2022-08-10T10:44:14.296Z,31.26
2022-08-10T10:47:28.775Z,31.04
2022-08-10T10:50:13.304Z,30.60
2022-08-10T10:53:01.953Z,30.68
2022-08-10T10:56:13.294Z,30.60
2022-08-10T10:58:34.058Z,30.64
2022-08-10T11:01:22.793Z,30.93
2022-08-10T11:04:21.154Z,31.21
2022-08-10T11:07:01.376Z,31.17
2022-08-10T11:10:04.900Z,31.18
2022-08-10T11:12:53.665Z,30.89
2022-08-10T11:15:31.188Z,30.69
2022-08-10T11:18:29.340Z,30.71
2022-08-10T11:21:22.656Z,30.89
2022-08-10T11:24:49.103Z,30.87
2022-08-10T11:27:25.640Z,30.79
2022-08-10T11:30:18.842Z,30.77
2022-08-10T11:36:55.298Z,30.35
2022-08-10T11:40:20.134Z,30.46
2022-08-10T11:43:19.158Z,30.47
2022-08-10T11:46:27.994Z,30.46
2022-08-10T11:49:13.302Z,30.29
2022-08-10T11:51:53.611Z,30.22
2022-08-10T11:54:55.079Z,30.29
2022-08-10T11:57:54.332Z,30.18
2022-08-10T12:00:18.744Z,30.27
2022-08-10T12:02:56.113Z,30.36
2022-08-10T12:05:53.750Z,30.32
2022-08-10T12:10:07.372Z,30.30
2022-08-10T12:11:25.550Z,30.27
2022-08-10T12:14:21.547Z,30.35
2022-08-10T12:17:02.404Z,30.44
2022-08-10T12:20:05.317Z,30.36
2022-08-10T12:22:42.074Z,30.25
2022-08-10T12:25:57.107Z,30.29
2022-08-10T12:28:50.884Z,30.38
2022-08-10T12:31:27.225Z,30.42
2022-08-10T12:34:23.082Z,30.60
2022-08-10T12:37:06.956Z,30.48
2022-08-10T12:40:17.547Z,30.51
2022-08-10T12:44:06.636Z,30.58
2022-08-10T12:46:35.867Z,30.78
2022-08-10T12:49:29.038Z,30.80
2022-08-10T12:52:26.621Z,30.75
2022-08-10T12:54:57.061Z,30.77
2022-08-10T12:57:26.141Z,30.72
2022-08-10T12:59:58.967Z,30.77
2022-08-10T13:02:38.510Z,30.79
2022-08-10T13:05:11.104Z,30.74
2022-08-10T13:08:25.327Z,30.84
2022-08-10T13:10:28.539Z,30.83
2022-08-10T13:12:58.441Z,30.92
2022-08-10T13:15:48.434Z,30.75
2022-08-10T13:18:44.557Z,30.74
2022-08-10T13:21:20.083Z,30.71
2022-08-10T13:24:05.170Z,30.72
2022-08-10T13:27:03.771Z,30.64
2022-08-10T13:29:36.394Z,30.65
2022-08-10T13:32:09.850Z,30.63
2022-08-10T13:34:45.560Z,30.52
2022-08-10T13:37:17.305Z,30.56
2022-08-10T13:39:58.728Z,30.61
2022-08-10T13:42:37.028Z,30.62
2022-08-10T13:45:14.587Z,30.67
2022-08-10T13:47:49.642Z,30.72
2022-08-10T13:50:35.494Z,30.62
2022-08-10T13:53:14.925Z,30.83
2022-08-10T13:55:55.009Z,30.83
2022-08-10T13:58:32.990Z,30.85
2022-08-10T14:01:08.424Z,30.94
2022-08-10T14:03:39.098Z,31.09
2022-08-10T14:06:12.109Z,31.19
2022-08-10T14:08:45.021Z,31.12
2022-08-10T14:11:17.119Z,31.11
2022-08-10T14:13:53.661Z,31.13
2022-08-10T14:16:22.301Z,31.17
2022-08-10T14:18:53.013Z,30.82
2022-08-10T14:21:21.149Z,30.96
2022-08-10T14:23:53.257Z,30.98
2022-08-10T14:26:30.715Z,30.96
2022-08-10T14:29:09.661Z,30.97
2022-08-10T14:31:40.805Z,31.17
2022-08-10T14:36:14.766Z,31.28
2022-08-10T14:37:45.140Z,31.48
2022-08-10T14:40:17.657Z,31.49
2022-08-10T14:42:54.266Z,31.38
2022-08-10T14:45:26.664Z,31.33
2022-08-10T14:48:03.673Z,31.23
2022-08-10T14:50:33.481Z,31.27
2022-08-10T14:53:20.218Z,31.00
2022-08-10T14:56:15.649Z,30.97
2022-08-10T14:59:06.289Z,31.16
2022-08-10T15:02:01.208Z,31.26
2022-08-10T15:04:28.885Z,31.27
2022-08-10T15:07:21.882Z,31.22
2022-08-10T15:10:02.162Z,31.12
2022-08-10T15:12:38.652Z,31.08
2022-08-10T15:15:11.027Z,31.05
2022-08-10T15:17:50.437Z,30.78
2022-08-10T15:20:24.336Z,30.80
2022-08-10T15:23:31.220Z,30.97
2022-08-10T15:26:10.751Z,31.03
2022-08-10T15:29:22.150Z,30.90
2022-08-10T15:31:59.885Z,30.91
2022-08-10T15:34:46.909Z,31.10
2022-08-10T15:37:36.583Z,31.17
2022-08-10T15:40:21.286Z,31.19
2022-08-10T15:43:02.062Z,31.03
2022-08-10T15:45:34.772Z,30.96
2022-08-10T15:48:06.043Z,30.92
2022-08-10T15:50:40.819Z,30.83
2022-08-10T15:53:49.566Z,30.77
2022-08-10T15:56:38.953Z,30.79
2022-08-10T15:59:46.709Z,30.67
2022-08-10T16:02:20.628Z,30.40
2022-08-10T16:05:14.146Z,30.46
2022-08-10T16:07:56.725Z,30.52
2022-08-10T16:10:38.557Z,30.58
2022-08-10T16:13:50.095Z,30.54
2022-08-10T16:16:05.759Z,30.47
2022-08-10T16:18:38.050Z,30.55
2022-08-10T16:21:26.748Z,30.54
2022-08-10T16:24:15.392Z,30.62
2022-08-10T16:26:51.800Z,30.52
2022-08-10T16:29:24.372Z,30.36
2022-08-10T16:32:04.344Z,30.37
2022-08-10T16:34:35.345Z,30.51
2022-08-10T16:37:11.233Z,30.53
2022-08-10T16:39:58.356Z,30.59
2022-08-10T16:42:34.941Z,30.57
2022-08-10T16:45:08.850Z,30.63
2022-08-10T16:47:46.659Z,30.47
2022-08-10T16:50:21.764Z,30.48
2022-08-10T16:52:51.739Z,30.40
2022-08-10T16:55:48.946Z,30.47
2022-08-10T16:58:16.041Z,30.41
2022-08-10T17:00:45.584Z,30.39
2022-08-10T17:03:22.887Z,30.45
2022-08-10T17:06:11.977Z,30.42
2022-08-10T17:08:51.524Z,30.35
2022-08-10T17:11:21.623Z,30.21
2022-08-10T17:13:49.199Z,30.27
2022-08-10T17:16:17.957Z,30.39
2022-08-10T17:18:46.975Z,30.30
2022-08-10T17:21:30.459Z,30.17
2022-08-10T17:24:03.653Z,30.23
2022-08-10T17:26:35.590Z,30.24
2022-08-10T17:29:57.345Z,30.23
2022-08-10T17:32:44.149Z,30.21
2022-08-10T17:35:22.493Z,30.19
2022-08-10T17:38:21.336Z,30.19
2022-08-10T17:41:00.733Z,30.21
2022-08-10T17:43:46.664Z,30.23
2022-08-10T17:46:17.081Z,30.21
2022-08-10T17:48:44.814Z,30.03
2022-08-10T17:51:15.501Z,29.92
2022-08-10T17:53:52.543Z,29.88
2022-08-10T17:56:21.547Z,29.83
2022-08-10T17:58:53.691Z,29.57
2022-08-10T18:01:41.775Z,29.50
2022-08-10T18:04:19.341Z,29.45
2022-08-10T18:06:54.690Z,29.35
2022-08-10T18:09:52.639Z,29.17
2022-08-10T18:12:36.518Z,29.33
2022-08-10T18:15:12.325Z,29.47
2022-08-10T18:17:46.278Z,29.43
2022-08-10T18:20:14.762Z,29.36
2022-08-10T18:22:50.995Z,29.36
2022-08-10T18:25:25.831Z,29.42
2022-08-10T18:28:03.780Z,29.39
2022-08-10T18:30:36.567Z,29.35
2022-08-10T18:33:09.508Z,29.33
2022-08-10T18:35:37.434Z,29.40
2022-08-10T18:38:06.466Z,29.25
2022-08-10T18:40:36.150Z,29.30
2022-08-10T18:44:05.835Z,29.24
2022-08-10T18:45:58.998Z,29.26
2022-08-10T18:48:38.867Z,29.20
2022-08-10T18:51:07.808Z,29.17
2022-08-10T18:53:50.645Z,29.09
2022-08-10T18:56:32.341Z,29.00
2022-08-10T19:00:08.260Z,29.01
2022-08-10T19:02:58.891Z,28.84
2022-08-10T19:06:05.940Z,28.79
2022-08-10T19:08:56.853Z,28.68
2022-08-10T19:11:40.349Z,28.53
2022-08-10T19:14:18.559Z,28.33
2022-08-10T19:18:01.112Z,28.25
2022-08-10T19:20:39.617Z,28.11
2022-08-10T19:23:55.558Z,27.95
2022-08-10T19:26:44.200Z,27.88
2022-08-10T19:30:10.233Z,27.87
2022-08-10T19:32:54.836Z,28.11
2022-08-10T19:36:04.515Z,27.94
2022-08-10T19:39:19.506Z,27.80
2022-08-10T19:42:11.479Z,27.85
2022-08-10T19:45:56.076Z,27.82
2022-08-10T19:48:52.910Z,27.74
2022-08-10T19:51:57.374Z,27.48
2022-08-10T19:55:12.464Z,27.40
2022-08-10T19:58:24.319Z,27.39
2022-08-10T20:01:02.713Z,27.34
2022-08-10T20:03:50.567Z,27.27
2022-08-10T20:06:27.002Z,27.33
2022-08-10T20:09:29.249Z,27.34
2022-08-10T20:12:03.808Z,27.38
2022-08-10T20:14:38.013Z,27.26
2022-08-10T20:17:51.423Z,27.34
2022-08-10T20:20:45.655Z,27.21
2022-08-10T20:23:15.884Z,27.19
2022-08-10T20:25:52.028Z,27.14
2022-08-10T20:28:49.792Z,27.13
2022-08-10T20:31:27.563Z,27.01
2022-08-10T20:34:06.008Z,26.97
2022-08-10T20:36:37.889Z,26.95
2022-08-10T20:39:21.304Z,26.90
2022-08-10T20:42:22.092Z,26.87
2022-08-10T20:45:04.093Z,26.82
2022-08-10T20:47:54.341Z,26.71
2022-08-10T20:50:45.081Z,26.70
2022-08-10T20:53:19.726Z,26.69
2022-08-10T20:56:03.765Z,26.72
2022-08-10T20:59:33.237Z,26.61
2022-08-10T21:02:49.671Z,26.47
2022-08-10T21:05:16.541Z,26.43
2022-08-10T21:08:11.103Z,26.25
2022-08-10T21:11:01.222Z,26.32
2022-08-10T21:14:12.990Z,26.26
2022-08-10T21:17:03.466Z,26.26
2022-08-10T21:20:30.506Z,26.19
2022-08-10T21:23:05.495Z,26.25
2022-08-10T21:26:11.561Z,26.23
2022-08-10T21:28:49.916Z,26.24
2022-08-10T21:32:03.725Z,26.03
2022-08-10T21:34:55.846Z,25.94
2022-08-10T21:38:21.695Z,25.96
2022-08-10T21:41:57.720Z,25.89
2022-08-10T21:45:58.094Z,25.86
2022-08-10T21:49:06.570Z,25.78
2022-08-10T21:52:08.337Z,25.80
2022-08-10T21:55:09.377Z,25.75
2022-08-10T21:58:08.866Z,25.63
2022-08-10T22:01:36.445Z,25.66
2022-08-10T22:04:25.518Z,25.60
2022-08-10T22:07:13.234Z,25.49
2022-08-10T22:10:05.389Z,25.51
2022-08-10T22:13:02.853Z,25.47
2022-08-10T22:16:10.577Z,25.33
2022-08-10T22:19:02.780Z,25.30
2022-08-10T22:22:19.807Z,25.39
2022-08-10T22:25:43.659Z,25.30
2022-08-10T22:28:33.966Z,25.21
2022-08-10T22:31:47.512Z,25.24
2022-08-10T22:35:18.685Z,25.25
2022-08-10T22:38:25.137Z,25.17
2022-08-10T22:41:12.675Z,25.12
2022-08-10T22:43:59.289Z,25.03
2022-08-10T22:46:49.368Z,25.06
2022-08-10T22:49:26.025Z,25.10
2022-08-10T22:52:19.578Z,25.01
2022-08-10T22:55:24.689Z,25.04
2022-08-10T22:58:10.613Z,25.00
2022-08-10T23:00:38.429Z,25.01
2022-08-10T23:03:23.177Z,24.97
2022-08-10T23:05:56.799Z,25.05
2022-08-10T23:08:50.498Z,24.99
2022-08-10T23:11:42.737Z,25.05
2022-08-10T23:14:14.928Z,25.03
2022-08-10T23:17:08.727Z,25.08
2022-08-10T23:20:04.291Z,24.99
2022-08-10T23:22:57.003Z,24.91
2022-08-10T23:25:28.261Z,24.93
2022-08-10T23:28:03.001Z,24.89
2022-08-10T23:30:42.806Z,24.85
2022-08-10T23:33:13.079Z,24.76
2022-08-10T23:36:30.311Z,24.67
2022-08-10T23:38:37.551Z,24.82
2022-08-10T23:41:05.490Z,24.82
2022-08-10T23:44:02.370Z,24.74
2022-08-10T23:46:28.851Z,24.60
2022-08-10T23:48:59.321Z,24.55
2022-08-10T23:51:55.985Z,24.59
2022-08-10T23:54:25.004Z,24.56
2022-08-10T23:57:00.999Z,24.50
2022-08-10T23:59:32.232Z,24.51
